Time;durP1;ratioP1;P1;durP2;ratioP2;P2;SDS_P1;SDS_P2;PMS_P1;PMS_P2;Temp;Humidity;BMP_temperature;BMP_pressure;BME280_temperature;BME280_humidity;BME280_pressure;Samples;Min_cycle;Max_cycle;Signal;HPM_P1;HPM_P2
2024/04/23 00:03:01;;;;;;;1.83;0.77;;;;;;;3.58;55.17;100807.22;10877273;27;20027;-60
2024/04/23 00:08:02;;;;;;;3.35;0.95;;;;;;;3.56;55.23;100805.66;10874582;27;20034;-60
2024/04/23 00:13:04;;;;;;;1.75;0.85;;;;;;;3.52;55.36;100802.38;10878759;27;20018;-60
2024/04/23 00:18:06;;;;;;;2.38;1.00;;;;;;;3.47;55.18;100793.91;10884789;27;20413;-60
2024/04/23 00:23:07;;;;;;;1.30;0.93;;;;;;;3.43;55.38;100786.31;10874968;27;20003;-60
2024/04/23 00:28:09;;;;;;;1.73;0.80;;;;;;;3.40;55.43;100784.72;10872010;27;20443;-59
2024/04/23 00:33:10;;;;;;;1.83;1.00;;;;;;;3.32;55.55;100774.69;10884582;27;20437;-59
2024/04/23 00:38:12;;;;;;;2.30;1.33;;;;;;;3.30;55.54;100775.78;10947871;27;20001;-60
2024/04/23 00:43:13;;;;;;;3.42;1.15;;;;;;;3.27;55.54;100779.50;10942908;26;20006;-59
2024/04/23 00:48:16;;;;;;;3.53;1.48;;;;;;;3.22;55.54;100778.16;10947524;26;20440;-59
2024/04/23 00:53:18;;;;;;;2.20;1.00;;;;;;;3.16;55.39;100772.38;10935543;26;20435;-59
2024/04/23 00:58:19;;;;;;;4.15;1.33;;;;;;;3.09;55.91;100771.16;10947539;26;20013;-59
2024/04/23 01:03:21;;;;;;;2.75;1.38;;;;;;;3.05;55.91;100768.84;10944695;27;20405;-59
2024/04/23 01:08:22;;;;;;;4.05;1.38;;;;;;;3.00;55.96;100763.03;10943426;26;20337;-59
2024/04/23 01:13:24;;;;;;;4.70;1.27;;;;;;;2.94;56.25;100767.00;10943632;26;20021;-59
2024/04/23 01:18:26;;;;;;;4.43;1.30;;;;;;;2.94;56.24;100767.00;10940949;26;20016;-59
2024/04/23 01:23:43;;;;;;;3.38;1.33;;;;;;;2.84;56.47;100772.16;10945054;26;19997;-59
2024/04/23 01:28:46;;;;;;;2.08;1.17;;;;;;;2.80;56.32;100776.00;10940789;26;20503;-59
2024/04/23 01:33:50;;;;;;;1.90;1.00;;;;;;;2.77;56.42;100774.44;10941215;26;19998;-59
2024/04/23 01:38:53;;;;;;;2.20;1.58;;;;;;;2.71;56.40;100768.75;10963713;26;20017;-60
2024/04/23 01:43:55;;;;;;;2.35;1.23;;;;;;;2.57;56.86;100767.97;10970919;26;20014;-60
2024/04/23 01:48:56;;;;;;;2.28;1.33;;;;;;;2.56;56.88;100760.94;10945302;26;20104;-60
2024/04/23 01:53:58;;;;;;;4.25;1.33;;;;;;;2.58;56.91;100756.38;10953563;26;20005;-60
2024/04/23 01:59:00;;;;;;;2.58;1.50;;;;;;;2.57;56.99;100752.03;10950452;26;20087;-60
2024/04/23 02:04:02;;;;;;;2.20;1.33;;;;;;;2.56;56.93;100754.81;10952849;26;20054;-60
2024/04/23 02:09:03;;;;;;;2.63;1.50;;;;;;;2.52;56.99;100751.53;10955605;26;20017;-60
2024/04/23 02:14:05;;;;;;;3.38;1.20;;;;;;;2.48;57.04;100752.72;10951138;26;21410;-60
2024/04/23 02:19:07;;;;;;;2.00;1.27;;;;;;;2.35;57.40;100747.50;10945623;26;20013;-60
2024/04/23 02:24:08;;;;;;;3.15;0.98;;;;;;;2.28;57.54;100746.22;10952700;26;20040;-60
2024/04/23 02:29:10;;;;;;;2.17;0.98;;;;;;;2.30;57.73;100735.53;10943896;26;20014;-60
2024/04/23 02:34:11;;;;;;;2.35;1.00;;;;;;;2.29;57.43;100741.75;10948020;26;20010;-60
2024/04/23 02:39:13;;;;;;;2.10;1.30;;;;;;;2.28;57.57;100732.97;10944635;26;20012;-59
2024/04/23 02:44:14;;;;;;;2.55;1.60;;;;;;;2.27;57.71;100738.38;10950984;26;20032;-59
2024/04/23 02:49:16;;;;;;;2.67;1.23;;;;;;;2.23;57.62;100737.75;10956692;26;20010;-58
2024/04/23 02:54:18;;;;;;;3.35;1.52;;;;;;;2.20;57.62;100731.84;10944012;26;20005;-59
2024/04/23 02:59:21;;;;;;;7.47;1.80;;;;;;;2.11;57.83;100738.66;10945285;26;20480;-58
2024/04/23 03:04:22;;;;;;;1.92;1.10;;;;;;;2.10;57.82;100729.88;10952110;27;20010;-58
2024/04/23 03:09:24;;;;;;;4.40;1.48;;;;;;;2.05;57.94;100737.28;10949232;26;20016;-59
2024/04/23 03:14:25;;;;;;;4.00;1.60;;;;;;;2.03;57.76;100736.56;10950929;26;20002;-58
2024/04/23 03:19:27;;;;;;;4.13;1.55;;;;;;;1.99;57.97;100737.75;10951905;26;20535;-60
2024/04/23 03:24:29;;;;;;;3.08;1.30;;;;;;;1.84;58.17;100726.47;10948762;26;20018;-60
2024/04/23 03:29:30;;;;;;;2.72;1.73;;;;;;;1.73;58.48;100735.16;10945497;26;20006;-59
2024/04/23 03:34:32;;;;;;;3.13;1.50;;;;;;;1.75;58.46;100725.31;10948734;26;20102;-60
2024/04/23 03:39:34;;;;;;;5.05;1.35;;;;;;;1.79;58.35;100740.03;10953338;26;20457;-60
2024/04/23 03:44:35;;;;;;;2.78;1.50;;;;;;;1.82;58.32;100732.81;10949064;26;20001;-60
2024/04/23 03:49:40;;;;;;;2.65;1.10;;;;;;;1.80;58.32;100735.59;10938800;26;20002;-60
2024/04/23 03:54:44;;;;;;;3.90;1.42;;;;;;;1.78;58.53;100734.84;10948120;26;20339;-60
2024/04/23 03:59:46;;;;;;;4.93;1.30;;;;;;;1.77;58.46;100735.78;10941995;26;20012;-59
2024/04/23 04:10:07;;;;;;;3.35;1.33;;;;;;;1.72;58.83;100745.91;10950520;26;20492;-59
2024/04/23 04:15:09;;;;;;;2.40;1.25;;;;;;;1.76;58.87;100744.72;10959847;26;20072;-64
2024/04/23 04:20:10;;;;;;;3.42;1.80;;;;;;;1.89;58.47;100739.38;10977240;26;20057;-64
2024/04/23 04:25:12;;;;;;;2.67;1.35;;;;;;;1.94;58.50;100737.25;10985639;26;19994;-62
2024/04/23 04:30:14;;;;;;;3.00;1.27;;;;;;;2.02;58.48;100729.59;10985186;26;20442;-64
2024/04/23 04:35:15;;;;;;;2.75;1.70;;;;;;;2.06;58.64;100736.34;10954587;26;20009;-63
2024/04/23 04:40:17;;;;;;;4.00;1.88;;;;;;;2.12;59.12;100730.59;10942301;26;20025;-63
2024/04/23 04:45:18;;;;;;;2.53;1.25;;;;;;;2.17;58.62;100736.44;10950808;26;20064;-63
2024/04/23 04:50:22;;;;;;;3.40;1.40;;;;;;;2.28;58.68;100738.28;10946059;26;20020;-63
2024/04/23 04:55:23;;;;;;;2.72;1.40;;;;;;;2.31;58.52;100737.19;10945675;26;20433;-63
2024/04/23 05:00:26;;;;;;;1.90;1.17;;;;;;;2.32;58.63;100736.25;10951176;26;20001;-63
2024/04/23 05:05:28;;;;;;;3.72;1.40;;;;;;;2.41;58.60;100740.00;10944934;26;20010;-63
2024/04/23 05:10:29;;;;;;;2.47;1.40;;;;;;;2.49;58.49;100735.84;10968597;26;19998;-66
2024/04/23 05:15:31;;;;;;;2.42;1.17;;;;;;;2.60;58.52;100735.03;10989705;26;20009;-61
2024/04/23 05:20:32;;;;;;;4.10;1.60;;;;;;;2.71;58.89;100735.09;10985011;26;20038;-65
2024/04/23 05:25:34;;;;;;;2.75;1.27;;;;;;;2.86;58.36;100725.09;10988339;26;20460;-64
2024/04/23 05:35:55;;;;;;;1.85;1.10;;;;;;;3.12;58.41;100731.09;10976829;26;20020;-67
2024/04/23 05:40:57;;;;;;;3.30;1.35;;;;;;;3.25;58.29;100730.97;10968228;26;20006;-64
2024/04/23 05:45:59;;;;;;;3.20;1.60;;;;;;;3.40;58.42;100728.06;10965279;26;20007;-63
2024/04/23 05:51:38;;;;;;;2.88;1.83;;;;;;;3.60;58.19;100735.34;10986786;26;20018;-62
2024/04/23 05:56:40;;;;;;;2.47;1.40;;;;;;;3.80;58.22;100733.75;10985434;26;20005;-62
2024/04/23 06:01:41;;;;;;;4.00;1.70;;;;;;;3.94;58.09;100740.63;10992384;26;20009;-64
2024/04/23 06:06:43;;;;;;;3.42;1.15;;;;;;;4.11;58.39;100739.25;10976487;26;20002;-64
2024/04/23 06:11:44;;;;;;;3.08;1.27;;;;;;;4.23;58.26;100737.41;10977863;26;20002;-63
2024/04/23 06:17:24;;;;;;;2.90;1.60;;;;;;;4.44;57.96;100732.13;10978504;26;19998;-61
2024/04/23 06:22:39;;;;;;;3.22;0.77;;;;;;;4.61;57.71;100738.72;10945575;26;20001;-63
2024/04/23 06:27:41;;;;;;;2.22;1.75;;;;;;;4.79;57.91;100723.03;10953574;26;20053;-64
2024/04/23 06:32:43;;;;;;;3.20;1.30;;;;;;;4.99;57.63;100713.34;10945906;26;20021;-64
2024/04/23 06:37:45;;;;;;;2.28;1.20;;;;;;;5.13;57.17;100710.31;10954245;26;20013;-63
2024/04/23 06:42:46;;;;;;;3.47;1.27;;;;;;;5.32;57.15;100710.44;10944951;26;20080;-63
2024/04/23 06:47:48;;;;;;;5.13;0.90;;;;;;;5.53;57.08;100709.56;10947524;27;20007;-63
2024/04/23 06:52:50;;;;;;;1.98;0.90;;;;;;;5.67;56.78;100698.50;10950765;26;20014;-63
2024/04/23 06:57:52;;;;;;;2.33;1.08;;;;;;;5.84;56.06;100691.66;10952419;26;20013;-64
2024/04/23 07:02:54;;;;;;;1.48;1.05;;;;;;;6.01;55.92;100689.34;10931037;26;20006;-63
2024/04/23 07:07:56;;;;;;;1.38;0.70;;;;;;;6.17;55.52;100689.66;10950638;27;20012;-63
2024/04/23 07:12:57;;;;;;;1.27;0.60;;;;;;;6.38;54.82;100684.19;10945076;26;20121;-64
2024/04/23 07:17:59;;;;;;;2.85;1.70;;;;;;;6.48;54.19;100687.69;10952294;26;20010;-63
2024/04/23 07:23:01;;;;;;;2.08;1.00;;;;;;;6.66;54.38;100685.16;10948294;26;20011;-64
2024/04/23 07:28:02;;;;;;;2.92;1.00;;;;;;;6.83;53.76;100678.25;10954887;26;19998;-65
2024/04/23 07:33:04;;;;;;;2.80;1.10;;;;;;;7.07;53.43;100672.44;10980487;26;20054;-66
2024/04/23 07:38:09;;;;;;;1.75;0.70;;;;;;;7.31;52.96;100671.91;10976113;26;19998;-62
2024/04/23 07:43:11;;;;;;;5.15;1.02;;;;;;;7.49;52.67;100673.81;10984795;26;20006;-67
2024/04/23 07:48:12;;;;;;;3.17;0.75;;;;;;;7.64;52.32;100671.47;10972353;26;20010;-65
2024/04/23 07:53:14;;;;;;;1.50;0.80;;;;;;;7.93;51.65;100666.78;10985577;26;20006;-64
2024/04/23 07:58:16;;;;;;;2.03;0.70;;;;;;;8.08;51.15;100675.16;10988075;26;20978;-65
2024/04/23 08:03:17;;;;;;;2.35;0.70;;;;;;;8.30;50.56;100655.09;10984628;26;20080;-63
2024/04/23 08:08:19;;;;;;;3.47;0.68;;;;;;;8.43;50.13;100657.44;10989324;26;20006;-62
2024/04/23 08:13:21;;;;;;;2.15;0.60;;;;;;;8.62;49.94;100652.88;10981866;26;20017;-65
2024/04/23 08:18:22;;;;;;;2.55;1.05;;;;;;;8.85;49.10;100654.06;10977443;26;22590;-66
2024/04/23 08:23:24;;;;;;;1.15;0.60;;;;;;;8.95;48.53;100645.91;10975331;26;20711;-63
2024/04/23 08:28:25;;;;;;;3.10;1.05;;;;;;;9.10;48.01;100635.44;10981106;26;20490;-69
2024/04/23 08:33:27;;;;;;;2.15;0.80;;;;;;;9.21;47.83;100629.81;10949286;26;20013;-65
2024/04/23 08:38:28;;;;;;;1.08;0.80;;;;;;;9.25;47.25;100628.47;10890741;27;20002;-63
2024/04/23 08:43:38;;;;;;;2.88;0.98;;;;;;;9.38;47.11;100630.72;10892706;27;20447;-58
2024/04/23 08:48:41;;;;;;;1.63;0.80;;;;;;;9.57;46.90;100621.56;10895995;27;20033;-60
2024/04/23 08:53:44;;;;;;;2.00;1.55;;;;;;;9.71;46.39;100617.41;10889829;27;19998;-58
2024/04/23 08:58:46;;;;;;;1.58;1.02;;;;;;;9.80;45.77;100612.91;10893070;27;19999;-59
2024/04/23 09:03:51;;;;;;;3.70;0.80;;;;;;;9.95;45.11;100607.72;10887220;27;20002;-62
2024/04/23 09:08:53;;;;;;;1.50;1.20;;;;;;;10.12;44.44;100607.56;10882715;27;20367;-63
2024/04/23 09:13:59;;;;;;;4.47;1.02;;;;;;;10.17;43.62;100600.84;10889723;27;20010;-62
2024/04/23 09:19:01;;;;;;;2.13;0.90;;;;;;;9.98;43.42;100599.34;10889033;27;19999;-59
2024/04/23 09:24:04;;;;;;;1.33;0.60;;;;;;;10.29;42.20;100595.00;10886922;27;20022;-60
2024/04/23 09:29:06;;;;;;;0.98;0.40;;;;;;;10.62;41.48;100586.91;10883885;27;20004;-59
2024/04/23 09:34:10;;;;;;;1.08;0.57;;;;;;;10.83;40.88;100581.00;10907554;26;20002;-60
2024/04/23 09:39:16;;;;;;;2.45;0.50;;;;;;;11.04;40.73;100571.56;10964422;26;20006;-60
2024/04/23 09:44:19;;;;;;;1.13;0.57;;;;;;;10.98;40.90;100566.84;10961141;26;20453;-61
2024/04/23 09:49:22;;;;;;;1.65;0.50;;;;;;;10.89;39.99;100564.19;10952605;27;20158;-62
2024/04/23 09:54:24;;;;;;;3.10;0.68;;;;;;;11.23;39.73;100546.91;10942785;26;20017;-61
2024/04/23 09:59:26;;;;;;;0.90;0.60;;;;;;;11.61;39.04;100538.97;10951529;26;20009;-62
2024/04/23 10:04:30;;;;;;;1.15;0.70;;;;;;;11.97;38.88;100524.94;10945270;26;20017;-61
2024/04/23 10:09:33;;;;;;;1.60;0.68;;;;;;;12.14;38.62;100519.41;10963217;26;20591;-59
2024/04/23 10:14:45;;;;;;;2.70;0.65;;;;;;;12.63;37.76;100513.53;10985564;26;20090;-59
2024/04/23 10:19:50;;;;;;;0.98;0.70;;;;;;;13.09;37.21;100514.16;10978600;26;20018;-59
2024/04/23 10:24:53;;;;;;;1.65;0.50;;;;;;;13.76;36.03;100508.69;10984005;26;20535;-59
2024/04/23 10:29:57;;;;;;;0.95;0.30;;;;;;;14.22;35.38;100501.00;10981070;27;20001;-59
2024/04/23 10:35:03;;;;;;;0.88;0.40;;;;;;;14.79;34.43;100488.28;10991093;26;20005;-59
2024/04/23 10:40:07;;;;;;;3.95;0.40;;;;;;;14.54;34.04;100487.06;10998866;26;20005;-61
2024/04/23 10:45:10;;;;;;;1.67;0.68;;;;;;;14.36;33.97;100485.69;10958595;26;20091;-60
2024/04/23 10:50:12;;;;;;;2.00;0.40;;;;;;;14.58;32.95;100477.53;10978835;26;20800;-59
2024/04/23 10:55:18;;;;;;;0.57;0.40;;;;;;;15.22;32.10;100468.25;10982645;26;20056;-60
2024/04/23 11:00:34;;;;;;;0.77;0.40;;;;;;;15.42;31.95;100454.75;10942598;26;20020;-62
2024/04/23 11:05:47;;;;;;;0.68;0.30;;;;;;;15.10;31.39;100453.63;10938890;26;20016;-62
2024/04/23 11:10:50;;;;;;;1.92;0.32;;;;;;;15.50;30.92;100453.72;10943578;26;20022;-62
2024/04/23 11:15:52;;;;;;;0.85;0.40;;;;;;;15.77;30.72;100438.38;10947940;26;20404;-66
2024/04/23 11:20:55;;;;;;;0.70;0.40;;;;;;;15.60;30.57;100427.06;10950611;26;20024;-66
2024/04/23 11:25:57;;;;;;;0.75;0.40;;;;;;;15.99;30.07;100420.00;10941594;26;20017;-66
2024/04/23 11:30:59;;;;;;;1.10;0.30;;;;;;;16.39;29.61;100418.06;10948219;26;20006;-66
2024/04/23 11:36:02;;;;;;;0.93;0.43;;;;;;;18.47;27.65;100395.78;10951783;26;20795;-66
2024/04/23 11:41:09;;;;;;;2.97;0.40;;;;;;;23.73;22.05;100364.13;10951290;26;20005;-66
2024/04/23 11:46:14;;;;;;;;;;;;;;;27.45;20.58;100365.56;10952668;26;20006;-66
2024/04/23 11:51:15;;;;;;;0.57;0.30;;;;;;;30.31;18.24;100376.66;10946882;26;19934;-67
2024/04/23 11:56:17;;;;;;;1.08;0.50;;;;;;;32.07;17.06;100380.66;10949012;26;20016;-67
2024/04/23 12:01:18;;;;;;;1.23;0.57;;;;;;;33.58;15.17;100376.69;10946908;26;20006;-67
2024/04/23 12:06:21;;;;;;;0.88;0.50;;;;;;;33.28;14.82;100359.81;10950791;26;20002;-67
2024/04/23 12:11:23;;;;;;;1.52;0.68;;;;;;;34.92;13.48;100356.75;10944247;26;20065;-68
2024/04/23 12:16:25;;;;;;;0.55;0.40;;;;;;;34.55;13.71;100356.47;10949339;26;20006;-68
2024/04/23 12:21:27;;;;;;;1.13;0.40;;;;;;;36.20;12.63;100352.53;10949484;26;20013;-67
2024/04/23 12:26:31;;;;;;;1.15;0.50;;;;;;;35.72;12.67;100352.09;10954459;26;20412;-68
2024/04/23 12:31:32;;;;;;;0.70;0.47;;;;;;;35.39;12.47;100340.91;10947100;26;20006;-66
2024/04/23 12:36:34;;;;;;;0.60;0.40;;;;;;;32.39;14.29;100337.75;10986939;26;20015;-68
2024/04/23 12:41:38;;;;;;;0.40;0.40;;;;;;;29.58;15.92;100331.13;10988169;26;19998;-66
2024/04/23 12:46:40;;;;;;;1.30;0.43;;;;;;;29.20;16.45;100318.16;10984672;27;20005;-66
2024/04/23 12:51:42;;;;;;;0.88;0.40;;;;;;;32.69;14.42;100303.78;10964147;26;19998;-70
2024/04/23 12:56:43;;;;;;;1.20;0.50;;;;;;;35.44;11.37;100298.75;10942708;26;20454;-68
2024/04/23 13:01:45;;;;;;;2.25;0.55;;;;;;;35.38;11.98;100286.97;10953966;27;20006;-67
2024/04/23 13:06:51;;;;;;;0.55;0.52;;;;;;;35.17;12.28;100284.22;10943954;26;20008;-67
2024/04/23 13:11:53;;;;;;;1.48;0.52;;;;;;;34.60;11.70;100282.03;10944645;26;20013;-67
2024/04/23 13:16:57;;;;;;;0.73;0.50;;;;;;;35.11;11.07;100274.41;10945660;26;19998;-71
2024/04/23 13:21:59;;;;;;;0.45;0.40;;;;;;;32.47;12.48;100258.19;10949949;27;20451;-60
2024/04/23 13:27:04;;;;;;;2.80;0.40;;;;;;;33.54;11.97;100255.81;10947263;26;20010;-62
2024/04/23 13:32:08;;;;;;;0.90;0.50;;;;;;;35.37;10.88;100239.78;10949443;26;20017;-61
2024/04/23 13:37:10;;;;;;;0.63;0.50;;;;;;;35.82;10.71;100245.34;10957612;26;20745;-62
2024/04/23 13:42:11;;;;;;;1.23;0.50;;;;;;;36.32;10.08;100237.75;10954288;27;20083;-62
2024/04/23 13:47:13;;;;;;;1.17;0.50;;;;;;;36.55;10.74;100240.03;10954831;26;20002;-62
2024/04/23 13:52:14;;;;;;;0.95;0.43;;;;;;;37.50;10.37;100220.66;10960297;26;20017;-62
2024/04/23 13:57:16;;;;;;;1.98;0.57;;;;;;;37.21;9.82;100233.16;10961577;26;20001;-61
2024/04/23 14:02:20;;;;;;;0.50;0.40;;;;;;;37.53;10.56;100217.13;10953915;26;20006;-61
2024/04/23 14:07:22;;;;;;;1.38;0.40;;;;;;;37.14;9.68;100221.72;10949952;26;20001;-61
2024/04/23 14:12:26;;;;;;;0.70;0.30;;;;;;;36.68;10.88;100210.84;10957109;26;20006;-62
2024/04/23 14:17:27;;;;;;;0.45;0.40;;;;;;;36.67;9.94;100209.19;10952947;26;20021;-61
2024/04/23 14:22:29;;;;;;;0.98;0.40;;;;;;;34.54;11.12;100198.50;10984519;26;20002;-61
2024/04/23 14:27:30;;;;;;;0.68;0.47;;;;;;;31.80;11.81;100198.16;10955610;26;20025;-61
2024/04/23 14:32:32;;;;;;;0.82;0.50;;;;;;;28.64;13.45;100200.06;10947812;26;20001;-63
2024/04/23 14:37:35;;;;;;;2.40;0.50;;;;;;;28.31;13.18;100190.84;10955418;26;20021;-60
2024/04/23 14:42:37;;;;;;;2.88;0.47;;;;;;;28.13;13.26;100198.81;10946797;26;20429;-60
2024/04/23 14:47:38;;;;;;;1.83;0.65;;;;;;;26.55;14.19;100199.25;10955187;26;20017;-63
2024/04/23 14:52:40;;;;;;;2.00;0.50;;;;;;;24.94;15.30;100188.19;10952370;26;20363;-63
2024/04/23 14:57:42;;;;;;;1.63;0.80;;;;;;;24.13;15.96;100184.22;10961078;26;20025;-60
2024/04/23 15:02:45;;;;;;;5.70;0.50;;;;;;;22.61;16.93;100178.34;10949642;26;20080;-60
2024/04/23 15:07:47;;;;;;;4.05;0.60;;;;;;;21.99;17.10;100176.84;10958720;26;20001;-61
2024/04/23 15:12:48;;;;;;;1.73;0.60;;;;;;;20.93;17.73;100169.59;10955269;26;19998;-60
2024/04/23 15:17:50;;;;;;;2.33;0.75;;;;;;;21.00;17.62;100167.53;10945752;26;20472;-59
2024/04/23 15:22:52;;;;;;;2.70;0.93;;;;;;;20.41;18.30;100165.16;10949827;26;20020;-60
2024/04/23 15:27:56;;;;;;;1.35;0.70;;;;;;;20.64;18.25;100157.94;10950394;26;20006;-60
2024/04/23 15:32:58;;;;;;;1.63;0.68;;;;;;;21.23;17.77;100152.84;10955348;26;20010;-60
2024/04/23 15:37:59;;;;;;;0.50;0.40;;;;;;;21.70;17.50;100144.22;10946385;26;20002;-62
2024/04/23 15:43:01;;;;;;;1.30;0.60;;;;;;;20.66;18.18;100147.59;10948852;26;20679;-62
2024/04/23 15:48:03;;;;;;;2.67;0.70;;;;;;;20.10;18.96;100142.78;10944442;26;20002;-62
2024/04/23 15:53:05;;;;;;;0.40;0.30;;;;;;;20.05;18.61;100145.41;10949002;26;20125;-61
2024/04/23 15:58:06;;;;;;;1.08;0.38;;;;;;;20.92;18.40;100138.72;10945174;26;20186;-62
2024/04/23 16:03:08;;;;;;;2.40;0.50;;;;;;;21.47;18.48;100125.31;10939660;26;20345;-62
2024/04/23 16:08:10;;;;;;;1.38;0.65;;;;;;;21.76;18.12;100121.31;10950301;26;20005;-62
2024/04/23 16:13:11;;;;;;;2.63;0.50;;;;;;;21.01;18.99;100122.75;10951067;26;19997;-61
2024/04/23 16:18:13;;;;;;;2.13;0.65;;;;;;;20.55;19.30;100122.78;10950292;26;20073;-62
2024/04/23 16:23:15;;;;;;;1.92;0.50;;;;;;;20.06;19.85;100118.91;10946824;26;20021;-61
2024/04/23 16:28:17;;;;;;;2.05;0.60;;;;;;;19.51;20.08;100121.13;10941222;26;20591;-62
2024/04/23 16:33:19;;;;;;;0.80;0.50;;;;;;;19.10;20.38;100117.50;10944494;26;20025;-61
2024/04/23 16:38:21;;;;;;;1.30;0.50;;;;;;;18.66;20.34;100111.53;10944369;26;19997;-62
2024/04/23 16:43:22;;;;;;;0.98;0.50;;;;;;;18.30;21.01;100109.81;10951830;26;20457;-61
2024/04/23 16:48:24;;;;;;;2.70;0.50;;;;;;;17.93;21.78;100108.06;10950379;26;20025;-59
2024/04/23 16:53:28;;;;;;;2.25;0.40;;;;;;;17.69;21.89;100104.34;10951903;26;20371;-61
2024/04/23 16:58:29;;;;;;;2.65;0.40;;;;;;;17.41;22.04;100110.34;10958090;26;20006;-59
2024/04/23 17:03:31;;;;;;;3.83;0.60;;;;;;;17.10;22.36;100104.00;10951746;26;20006;-60
2024/04/23 17:08:33;;;;;;;1.15;0.57;;;;;;;16.80;21.98;100098.41;10950914;26;20081;-60
2024/04/23 17:13:34;;;;;;;1.85;0.50;;;;;;;16.53;22.56;100100.50;10953243;26;20012;-60
2024/04/23 17:18:36;;;;;;;1.55;0.73;;;;;;;16.31;23.25;100100.91;10955110;26;19998;-63
2024/04/23 17:23:38;;;;;;;3.55;0.60;;;;;;;16.11;23.49;100105.63;10952730;26;20429;-60
2024/04/23 17:28:39;;;;;;;3.15;0.50;;;;;;;15.88;23.58;100107.03;10950240;26;20006;-60
2024/04/23 17:33:41;;;;;;;2.00;0.50;;;;;;;15.63;23.72;100099.59;10954795;26;20002;-59
2024/04/23 17:38:49;;;;;;;0.40;0.30;;;;;;;15.45;24.57;100091.34;10955362;26;20010;-61
2024/04/23 17:43:50;;;;;;;2.03;0.90;;;;;;;15.18;24.92;100099.53;10953678;26;20377;-59
2024/04/23 17:48:52;;;;;;;1.48;0.73;;;;;;;14.97;24.65;100102.50;10948897;26;20345;-59
2024/04/23 17:53:54;;;;;;;0.90;0.60;;;;;;;14.79;25.54;100097.75;10953900;26;20005;-63
2024/04/23 17:58:57;;;;;;;4.50;0.82;;;;;;;14.65;25.47;100095.06;10949950;26;20006;-63
2024/04/23 18:03:59;;;;;;;1.38;0.50;;;;;;;14.36;26.06;100098.16;10955562;26;20002;-59
2024/04/23 18:09:00;;;;;;;1.52;0.60;;;;;;;14.12;25.82;100102.28;10951861;26;20025;-60
2024/04/23 18:14:04;;;;;;;1.27;0.70;;;;;;;13.91;26.50;100108.69;10956532;26;20002;-60
2024/04/23 18:19:05;;;;;;;0.90;0.52;;;;;;;13.62;26.60;100100.69;10963679;26;20009;-59
2024/04/23 18:24:10;;;;;;;2.58;0.52;;;;;;;13.30;27.00;100104.91;10959342;26;20017;-59
2024/04/23 18:29:11;;;;;;;1.20;0.40;;;;;;;13.04;27.62;100105.56;10947393;26;20002;-58
2024/04/23 18:34:13;;;;;;;2.63;0.40;;;;;;;12.77;27.81;100108.06;10951444;26;20002;-58
2024/04/23 18:39:15;;;;;;;1.23;0.57;;;;;;;12.55;28.08;100109.97;10932098;26;20007;-58
2024/04/23 18:44:16;;;;;;;0.75;0.40;;;;;;;12.42;28.04;100112.56;10937240;26;20020;-58
2024/04/23 18:49:18;;;;;;;1.77;0.50;;;;;;;12.24;28.48;100110.31;10954087;26;20057;-57
2024/04/23 18:54:20;;;;;;;2.35;0.60;;;;;;;12.08;28.92;100112.28;10946266;26;20096;-59
2024/04/23 18:59:21;;;;;;;3.47;0.50;;;;;;;12.00;28.91;100111.53;10947389;26;20359;-58
2024/04/23 19:04:23;;;;;;;2.00;0.60;;;;;;;11.90;29.42;100111.84;10952501;26;20017;-58
2024/04/23 19:09:25;;;;;;;1.38;0.70;;;;;;;11.68;29.90;100114.47;10947490;26;20346;-59
2024/04/23 19:14:26;;;;;;;3.88;0.80;;;;;;;11.49;29.86;100113.22;10952150;26;20094;-61
2024/04/23 19:19:28;;;;;;;3.58;0.77;;;;;;;11.31;30.54;100104.69;10940480;26;20025;-60
2024/04/23 19:24:30;;;;;;;3.03;0.60;;;;;;;11.13;30.52;100113.13;10949566;26;20092;-59
2024/04/23 19:29:37;;;;;;;1.45;0.60;;;;;;;10.91;31.13;100113.03;10943779;26;20005;-60
2024/04/23 19:34:38;;;;;;;1.05;0.60;;;;;;;10.80;31.07;100118.88;10933926;26;20016;-61
2024/04/23 19:39:41;;;;;;;1.70;0.98;;;;;;;10.71;31.02;100109.22;10951415;27;20005;-61
2024/04/23 19:44:42;;;;;;;2.15;0.70;;;;;;;10.56;31.68;100113.72;10958418;26;19997;-60
2024/04/23 19:49:44;;;;;;;1.50;0.60;;;;;;;10.35;31.90;100112.56;10956264;26;20360;-59
2024/04/23 19:54:46;;;;;;;1.55;1.02;;;;;;;10.25;32.32;100099.34;10951242;26;20009;-60
2024/04/23 19:59:49;;;;;;;2.00;0.52;;;;;;;10.17;32.43;100106.59;10945138;26;19998;-59
2024/04/23 20:04:50;;;;;;;5.60;1.30;;;;;;;10.05;32.42;100104.34;10956790;26;20017;-59
2024/04/23 20:09:52;;;;;;;1.67;0.85;;;;;;;9.98;32.76;100091.81;10950601;26;20002;-60
2024/04/23 20:14:54;;;;;;;1.73;0.93;;;;;;;9.94;32.73;100102.06;10957022;26;20005;-59
2024/04/23 20:19:55;;;;;;;1.92;1.17;;;;;;;9.84;33.25;100088.06;10945975;26;20079;-58
2024/04/23 20:24:58;;;;;;;3.65;1.33;;;;;;;9.75;33.46;100089.13;10938526;26;20006;-59
2024/04/23 20:30:00;;;;;;;3.70;1.52;;;;;;;9.65;33.90;100082.09;10970008;26;20013;-59
2024/04/23 20:35:02;;;;;;;5.70;1.95;;;;;;;9.68;34.11;100086.31;10947157;26;20012;-59
2024/04/23 20:40:05;;;;;;;3.40;1.70;;;;;;;9.60;34.17;100084.50;10944388;26;20064;-59
2024/04/23 20:45:07;;;;;;;3.10;2.00;;;;;;;9.65;34.25;100076.75;10958073;26;19999;-58
2024/04/23 20:50:09;;;;;;;3.20;2.28;;;;;;;9.48;34.42;100069.81;10952355;26;20016;-58
2024/04/23 20:55:10;;;;;;;4.55;2.35;;;;;;;9.41;34.99;100068.84;10944287;26;20083;-59
2024/04/23 21:00:12;;;;;;;4.93;2.47;;;;;;;9.33;34.82;100065.19;10953857;26;20395;-59
2024/04/23 21:05:14;;;;;;;3.33;2.05;;;;;;;9.27;35.07;100067.72;10949660;26;20394;-58
2024/04/23 21:10:16;;;;;;;2.90;2.65;;;;;;;9.18;35.25;100058.88;10951300;26;20084;-59
2024/04/23 21:15:18;;;;;;;4.60;2.58;;;;;;;9.12;35.80;100054.19;10955456;26;20010;-59
2024/04/23 21:20:19;;;;;;;6.53;2.90;;;;;;;9.08;36.12;100063.59;10944024;26;21234;-59
2024/04/23 21:25:21;;;;;;;4.63;2.90;;;;;;;8.99;36.16;100053.94;10930972;26;21208;-58
2024/04/23 21:30:23;;;;;;;4.10;2.95;;;;;;;8.95;36.26;100055.31;10946033;26;20002;-58
2024/04/23 21:35:25;;;;;;;5.00;2.90;;;;;;;8.89;36.40;100048.78;10978144;26;20023;-56
2024/04/23 21:40:27;;;;;;;4.35;2.70;;;;;;;8.84;36.64;100057.31;11009030;26;20403;-57
2024/04/23 21:45:29;;;;;;;3.47;3.15;;;;;;;8.83;36.58;100044.13;11014682;26;20005;-57
2024/04/23 21:50:31;;;;;;;5.93;3.83;;;;;;;8.78;36.66;100052.66;11021007;26;20112;-58
2024/04/23 21:55:34;;;;;;;4.68;2.85;;;;;;;8.71;36.72;100047.16;11019154;26;20083;-58
2024/04/23 22:00:36;;;;;;;9.82;3.70;;;;;;;8.62;37.03;100045.50;11023701;26;20020;-57
2024/04/23 22:05:37;;;;;;;4.75;2.92;;;;;;;8.61;37.37;100049.19;11026187;26;20008;-57
2024/04/23 22:10:39;;;;;;;3.70;2.80;;;;;;;8.51;37.89;100044.00;11012623;26;20036;-57
2024/04/23 22:15:40;;;;;;;4.68;3.03;;;;;;;8.32;38.16;100034.47;11018810;26;20048;-57
2024/04/23 22:20:44;;;;;;;5.75;3.00;;;;;;;8.15;38.58;100040.81;11018083;26;20016;-59
2024/04/23 22:25:46;;;;;;;5.53;2.95;;;;;;;7.97;38.84;100027.63;11021434;26;20009;-57
2024/04/23 22:30:48;;;;;;;5.07;3.90;;;;;;;7.83;39.12;100028.28;11020579;26;20005;-57
2024/04/23 22:35:49;;;;;;;5.15;3.53;;;;;;;7.74;39.37;100022.06;11027374;26;20001;-57
2024/04/23 22:40:51;;;;;;;7.43;4.18;;;;;;;7.80;39.40;100020.56;11025714;26;20056;-59
2024/04/23 22:45:53;;;;;;;6.72;3.85;;;;;;;7.73;39.83;100015.88;11011437;26;20006;-59
2024/04/23 22:50:54;;;;;;;7.00;3.63;;;;;;;7.73;39.99;100012.38;11023183;26;20109;-60
2024/04/23 22:55:56;;;;;;;5.10;3.38;;;;;;;7.70;39.72;100002.88;11032581;26;20006;-59
2024/04/23 23:00:57;;;;;;;6.43;3.42;;;;;;;7.66;40.11;100004.19;11024615;26;20402;-59
2024/04/23 23:05:59;;;;;;;7.30;3.97;;;;;;;7.61;40.42;100001.16;11019224;26;20019;-60
2024/04/23 23:11:00;;;;;;;8.50;3.45;;;;;;;7.54;40.70;99994.78;11016670;26;20005;-58
2024/04/23 23:16:02;;;;;;;6.30;3.22;;;;;;;7.41;40.91;99999.81;11020752;26;20013;-58
2024/04/23 23:21:04;;;;;;;5.43;2.92;;;;;;;7.45;41.08;99993.13;11026547;26;20018;-59
2024/04/23 23:26:06;;;;;;;3.58;2.58;;;;;;;7.47;41.09;99988.47;11028961;26;20456;-60
2024/04/23 23:31:07;;;;;;;5.80;2.70;;;;;;;7.49;41.08;99983.78;11016694;26;20001;-59